sensor_id;sensor_type;location;lat;lon;timestamp;temperature;humidity
22674;DHT22;11504;43.334;21.918;2023-03-31T00:02:53;15.3;100.0
22674;DHT22;11504;43.334;21.918;2023-03-31T00:07:30;15.2;100.0
22674;DHT22;11504;43.334;21.918;2023-03-31T00:12:07;15.2;100.0
22674;DHT22;11504;43.334;21.918;2023-03-31T00:16:45;15.1;100.0
22674;DHT22;11504;43.334;21.918;2023-03-31T00:21:23;15.1;100.0
22674;DHT22;11504;43.334;21.918;2023-03-31T00:26:01;15.0;100.0
22674;DHT22;11504;43.334;21.918;2023-03-31T00:30:38;15.0;100.0
22674;DHT22;11504;43.334;21.918;2023-03-31T00:35:15;14.9;100.0
22674;DHT22;11504;43.334;21.918;2023-03-31T00:39:52;14.9;100.0
22674;DHT22;11504;43.334;21.918;2023-03-31T00:44:30;14.8;100.0
22674;DHT22;11504;43.334;21.918;2023-03-31T00:49:18;14.8;100.0
22674;DHT22;11504;43.334;21.918;2023-03-31T00:54:07;14.8;100.0
22674;DHT22;11504;43.334;21.918;2023-03-31T00:58:44;14.8;100.0
22674;DHT22;11504;43.334;21.918;2023-03-31T01:03:21;14.6;100.0
22674;DHT22;11504;43.334;21.918;2023-03-31T01:07:59;14.6;100.0
22674;DHT22;11504;43.334;21.918;2023-03-31T01:12:45;14.6;100.0
22674;DHT22;11504;43.334;21.918;2023-03-31T01:17:26;14.5;100.0
22674;DHT22;11504;43.334;21.918;2023-03-31T01:22:38;14.5;100.0
22674;DHT22;11504;43.334;21.918;2023-03-31T01:28:59;14.4;100.0
22674;DHT22;11504;43.334;21.918;2023-03-31T01:35:07;14.4;100.0
22674;DHT22;11504;43.334;21.918;2023-03-31T01:41:19;14.4;100.0
22674;DHT22;11504;43.334;21.918;2023-03-31T01:46:35;14.4;100.0
22674;DHT22;11504;43.334;21.918;2023-03-31T01:51:48;14.4;100.0
22674;DHT22;11504;43.334;21.918;2023-03-31T01:56:54;14.5;100.0
22674;DHT22;11504;43.334;21.918;2023-03-31T02:02:00;14.5;100.0
22674;DHT22;11504;43.334;21.918;2023-03-31T02:07:07;14.4;100.0
22674;DHT22;11504;43.334;21.918;2023-03-31T02:12:04;14.4;100.0
22674;DHT22;11504;43.334;21.918;2023-03-31T02:16:51;14.4;100.0
22674;DHT22;11504;43.334;21.918;2023-03-31T02:21:39;14.4;100.0
22674;DHT22;11504;43.334;21.918;2023-03-31T02:26:24;14.4;100.0
22674;DHT22;11504;43.334;21.918;2023-03-31T02:31:27;14.4;100.0
22674;DHT22;11504;43.334;21.918;2023-03-31T02:36:24;14.4;100.0
22674;DHT22;11504;43.334;21.918;2023-03-31T02:41:00;14.4;100.0
22674;DHT22;11504;43.334;21.918;2023-03-31T02:45:43;14.3;100.0
22674;DHT22;11504;43.334;21.918;2023-03-31T02:50:34;14.3;100.0
22674;DHT22;11504;43.334;21.918;2023-03-31T02:56:40;14.2;100.0
22674;DHT22;11504;43.334;21.918;2023-03-31T03:02:47;14.2;100.0
22674;DHT22;11504;43.334;21.918;2023-03-31T03:08:35;14.2;100.0
22674;DHT22;11504;43.334;21.918;2023-03-31T03:14:29;14.1;100.0
22674;DHT22;11504;43.334;21.918;2023-03-31T03:19:27;14.1;100.0
22674;DHT22;11504;43.334;21.918;2023-03-31T03:24:06;14.1;100.0
22674;DHT22;11504;43.334;21.918;2023-03-31T03:28:44;14.1;100.0
22674;DHT22;11504;43.334;21.918;2023-03-31T03:33:21;14.1;100.0
22674;DHT22;11504;43.334;21.918;2023-03-31T03:37:57;14.1;100.0
22674;DHT22;11504;43.334;21.918;2023-03-31T03:42:34;14.1;100.0
22674;DHT22;11504;43.334;21.918;2023-03-31T03:47:11;14.0;100.0
22674;DHT22;11504;43.334;21.918;2023-03-31T03:51:47;14.0;100.0
22674;DHT22;11504;43.334;21.918;2023-03-31T03:56:23;14.0;100.0
22674;DHT22;11504;43.334;21.918;2023-03-31T04:01:00;14.0;100.0
22674;DHT22;11504;43.334;21.918;2023-03-31T04:05:37;14.0;100.0
22674;DHT22;11504;43.334;21.918;2023-03-31T04:10:14;14.0;100.0
22674;DHT22;11504;43.334;21.918;2023-03-31T04:14:51;13.9;100.0
22674;DHT22;11504;43.334;21.918;2023-03-31T04:19:28;13.9;100.0
22674;DHT22;11504;43.334;21.918;2023-03-31T04:24:06;13.9;100.0
22674;DHT22;11504;43.334;21.918;2023-03-31T04:28:44;13.9;100.0
22674;DHT22;11504;43.334;21.918;2023-03-31T04:33:21;13.9;100.0
22674;DHT22;11504;43.334;21.918;2023-03-31T04:37:57;13.9;100.0
22674;DHT22;11504;43.334;21.918;2023-03-31T04:42:34;13.9;100.0
22674;DHT22;11504;43.334;21.918;2023-03-31T04:47:11;13.9;100.0
22674;DHT22;11504;43.334;21.918;2023-03-31T04:51:47;13.9;100.0
22674;DHT22;11504;43.334;21.918;2023-03-31T04:56:23;13.9;100.0
22674;DHT22;11504;43.334;21.918;2023-03-31T05:00:59;13.9;100.0
22674;DHT22;11504;43.334;21.918;2023-03-31T05:05:36;13.9;100.0
22674;DHT22;11504;43.334;21.918;2023-03-31T05:10:13;13.9;100.0
22674;DHT22;11504;43.334;21.918;2023-03-31T05:14:49;13.9;100.0
22674;DHT22;11504;43.334;21.918;2023-03-31T05:19:25;13.9;100.0
22674;DHT22;11504;43.334;21.918;2023-03-31T05:24:02;13.9;100.0
22674;DHT22;11504;43.334;21.918;2023-03-31T05:28:41;13.9;100.0
22674;DHT22;11504;43.334;21.918;2023-03-31T05:33:19;13.9;100.0
22674;DHT22;11504;43.334;21.918;2023-03-31T05:37:56;13.9;100.0
22674;DHT22;11504;43.334;21.918;2023-03-31T05:42:33;13.9;100.0
22674;DHT22;11504;43.334;21.918;2023-03-31T05:47:10;14.0;100.0
22674;DHT22;11504;43.334;21.918;2023-03-31T05:51:50;14.0;100.0
22674;DHT22;11504;43.334;21.918;2023-03-31T05:56:26;14.1;100.0
22674;DHT22;11504;43.334;21.918;2023-03-31T06:01:08;14.1;100.0
22674;DHT22;11504;43.334;21.918;2023-03-31T06:05:52;14.2;100.0
22674;DHT22;11504;43.334;21.918;2023-03-31T06:10:29;14.2;100.0
22674;DHT22;11504;43.334;21.918;2023-03-31T06:15:07;14.2;100.0
22674;DHT22;11504;43.334;21.918;2023-03-31T06:19:44;14.2;100.0
22674;DHT22;11504;43.334;21.918;2023-03-31T06:24:21;14.6;100.0
22674;DHT22;11504;43.334;21.918;2023-03-31T06:28:57;14.6;100.0
22674;DHT22;11504;43.334;21.918;2023-03-31T06:33:34;14.6;100.0
22674;DHT22;11504;43.334;21.918;2023-03-31T06:38:11;15.1;100.0
22674;DHT22;11504;43.334;21.918;2023-03-31T06:42:47;15.1;100.0
22674;DHT22;11504;43.334;21.918;2023-03-31T06:47:24;15.2;100.0
22674;DHT22;11504;43.334;21.918;2023-03-31T06:52:00;15.2;100.0
22674;DHT22;11504;43.334;21.918;2023-03-31T06:56:37;15.4;100.0
22674;DHT22;11504;43.334;21.918;2023-03-31T07:01:13;15.4;100.0
22674;DHT22;11504;43.334;21.918;2023-03-31T07:05:53;15.4;100.0
22674;DHT22;11504;43.334;21.918;2023-03-31T07:10:32;15.4;100.0
22674;DHT22;11504;43.334;21.918;2023-03-31T07:15:09;15.3;100.0
22674;DHT22;11504;43.334;21.918;2023-03-31T07:19:46;15.3;100.0
22674;DHT22;11504;43.334;21.918;2023-03-31T07:24:22;15.2;100.0
22674;DHT22;11504;43.334;21.918;2023-03-31T07:28:59;15.2;100.0
22674;DHT22;11504;43.334;21.918;2023-03-31T07:33:35;15.2;100.0
22674;DHT22;11504;43.334;21.918;2023-03-31T07:38:12;15.2;100.0
22674;DHT22;11504;43.334;21.918;2023-03-31T07:42:50;15.2;100.0
22674;DHT22;11504;43.334;21.918;2023-03-31T07:47:28;15.2;100.0
22674;DHT22;11504;43.334;21.918;2023-03-31T07:52:04;15.2;100.0
22674;DHT22;11504;43.334;21.918;2023-03-31T08:24:25;16.4;100.0
22674;DHT22;11504;43.334;21.918;2023-03-31T08:29:02;16.4;100.0
22674;DHT22;11504;43.334;21.918;2023-03-31T08:33:39;16.4;100.0
22674;DHT22;11504;43.334;21.918;2023-03-31T08:38:16;16.4;100.0
22674;DHT22;11504;43.334;21.918;2023-03-31T08:43:20;16.4;100.0
22674;DHT22;11504;43.334;21.918;2023-03-31T08:48:31;16.6;100.0
22674;DHT22;11504;43.334;21.918;2023-03-31T08:53:32;16.6;100.0
22674;DHT22;11504;43.334;21.918;2023-03-31T08:58:39;16.8;100.0
22674;DHT22;11504;43.334;21.918;2023-03-31T09:03:46;16.8;100.0
22674;DHT22;11504;43.334;21.918;2023-03-31T09:08:36;17.2;100.0
22674;DHT22;11504;43.334;21.918;2023-03-31T09:14:09;17.6;100.0
22674;DHT22;11504;43.334;21.918;2023-03-31T09:19:00;17.6;100.0
22674;DHT22;11504;43.334;21.918;2023-03-31T09:23:47;17.6;100.0
22674;DHT22;11504;43.334;21.918;2023-03-31T09:28:38;17.8;100.0
22674;DHT22;11504;43.334;21.918;2023-03-31T09:33:26;17.8;100.0
22674;DHT22;11504;43.334;21.918;2023-03-31T09:38:07;18.0;100.0
22674;DHT22;11504;43.334;21.918;2023-03-31T09:42:58;18.0;100.0
22674;DHT22;11504;43.334;21.918;2023-03-31T09:47:46;18.2;100.0
22674;DHT22;11504;43.334;21.918;2023-03-31T09:52:34;18.2;100.0
22674;DHT22;11504;43.334;21.918;2023-03-31T09:57:28;18.4;100.0
22674;DHT22;11504;43.334;21.918;2023-03-31T10:02:36;18.4;100.0
22674;DHT22;11504;43.334;21.918;2023-03-31T10:07:23;18.8;100.0
22674;DHT22;11504;43.334;21.918;2023-03-31T10:12:15;18.8;100.0
22674;DHT22;11504;43.334;21.918;2023-03-31T10:16:57;19.3;100.0
22674;DHT22;11504;43.334;21.918;2023-03-31T10:21:39;19.3;100.0
22674;DHT22;11504;43.334;21.918;2023-03-31T10:26:21;19.8;100.0
22674;DHT22;11504;43.334;21.918;2023-03-31T10:31:00;19.8;100.0
22674;DHT22;11504;43.334;21.918;2023-03-31T10:35:38;20.2;100.0
22674;DHT22;11504;43.334;21.918;2023-03-31T10:40:24;20.2;100.0
22674;DHT22;11504;43.334;21.918;2023-03-31T10:45:27;20.6;100.0
22674;DHT22;11504;43.334;21.918;2023-03-31T10:50:15;20.6;100.0
22674;DHT22;11504;43.334;21.918;2023-03-31T10:54:59;21.1;100.0
22674;DHT22;11504;43.334;21.918;2023-03-31T11:00:09;21.1;100.0
22674;DHT22;11504;43.334;21.918;2023-03-31T11:05:33;21.2;100.0
22674;DHT22;11504;43.334;21.918;2023-03-31T11:11:07;21.2;100.0
22674;DHT22;11504;43.334;21.918;2023-03-31T11:16:30;21.3;100.0
22674;DHT22;11504;43.334;21.918;2023-03-31T11:21:52;21.3;100.0
22674;DHT22;11504;43.334;21.918;2023-03-31T11:27:20;20.8;100.0
22674;DHT22;11504;43.334;21.918;2023-03-31T11:32:48;20.8;100.0
22674;DHT22;11504;43.334;21.918;2023-03-31T11:38:06;20.3;100.0
22674;DHT22;11504;43.334;21.918;2023-03-31T11:42:57;20.3;100.0
22674;DHT22;11504;43.334;21.918;2023-03-31T11:47:43;20.5;100.0
22674;DHT22;11504;43.334;21.918;2023-03-31T11:52:31;20.5;100.0
22674;DHT22;11504;43.334;21.918;2023-03-31T11:57:20;20.7;100.0
22674;DHT22;11504;43.334;21.918;2023-03-31T12:02:17;20.7;100.0
22674;DHT22;11504;43.334;21.918;2023-03-31T12:07:15;21.0;100.0
22674;DHT22;11504;43.334;21.918;2023-03-31T12:12:17;21.0;100.0
22674;DHT22;11504;43.334;21.918;2023-03-31T12:17:11;21.3;100.0
22674;DHT22;11504;43.334;21.918;2023-03-31T12:22:07;21.3;100.0
22674;DHT22;11504;43.334;21.918;2023-03-31T12:27:13;21.3;100.0
22674;DHT22;11504;43.334;21.918;2023-03-31T12:32:03;21.3;100.0
22674;DHT22;11504;43.334;21.918;2023-03-31T12:49:40;20.8;100.0
22674;DHT22;11504;43.334;21.918;2023-03-31T12:55:06;20.8;100.0
22674;DHT22;11504;43.334;21.918;2023-03-31T13:00:33;20.8;100.0
22674;DHT22;11504;43.334;21.918;2023-03-31T13:06:57;20.8;100.0
22674;DHT22;11504;43.334;21.918;2023-03-31T13:11:43;20.8;100.0
22674;DHT22;11504;43.334;21.918;2023-03-31T13:16:21;20.9;100.0
22674;DHT22;11504;43.334;21.918;2023-03-31T13:21:01;20.9;100.0
22674;DHT22;11504;43.334;21.918;2023-03-31T13:25:49;21.0;100.0
22674;DHT22;11504;43.334;21.918;2023-03-31T13:30:53;21.0;100.0
22674;DHT22;11504;43.334;21.918;2023-03-31T13:35:40;21.2;100.0
22674;DHT22;11504;43.334;21.918;2023-03-31T13:41:06;21.2;100.0
22674;DHT22;11504;43.334;21.918;2023-03-31T13:46:59;21.2;100.0
22674;DHT22;11504;43.334;21.918;2023-03-31T13:54:27;21.1;100.0
22674;DHT22;11504;43.334;21.918;2023-03-31T14:00:37;21.1;100.0
22674;DHT22;11504;43.334;21.918;2023-03-31T14:06:25;21.0;100.0
22674;DHT22;11504;43.334;21.918;2023-03-31T14:11:25;21.0;100.0
22674;DHT22;11504;43.334;21.918;2023-03-31T14:16:05;21.0;100.0
22674;DHT22;11504;43.334;21.918;2023-03-31T14:21:07;21.0;100.0
22674;DHT22;11504;43.334;21.918;2023-03-31T14:26:04;21.0;100.0
22674;DHT22;11504;43.334;21.918;2023-03-31T14:31:09;21.0;100.0
22674;DHT22;11504;43.334;21.918;2023-03-31T14:36:08;21.1;100.0
22674;DHT22;11504;43.334;21.918;2023-03-31T14:40:52;21.1;100.0
22674;DHT22;11504;43.334;21.918;2023-03-31T14:45:30;21.2;100.0
22674;DHT22;11504;43.334;21.918;2023-03-31T14:50:17;21.2;100.0
22674;DHT22;11504;43.334;21.918;2023-03-31T14:54:54;21.2;100.0
22674;DHT22;11504;43.334;21.918;2023-03-31T14:59:34;21.2;100.0
22674;DHT22;11504;43.334;21.918;2023-03-31T15:04:20;21.2;100.0
22674;DHT22;11504;43.334;21.918;2023-03-31T15:09:03;21.2;100.0
22674;DHT22;11504;43.334;21.918;2023-03-31T15:13:45;21.2;100.0
22674;DHT22;11504;43.334;21.918;2023-03-31T15:18:27;21.3;100.0
22674;DHT22;11504;43.334;21.918;2023-03-31T15:23:21;21.3;100.0
22674;DHT22;11504;43.334;21.918;2023-03-31T15:28:08;21.4;100.0
22674;DHT22;11504;43.334;21.918;2023-03-31T15:32:52;21.4;100.0
22674;DHT22;11504;43.334;21.918;2023-03-31T15:37:39;21.4;100.0
22674;DHT22;11504;43.334;21.918;2023-03-31T15:42:17;21.4;100.0
22674;DHT22;11504;43.334;21.918;2023-03-31T15:47:07;21.4;100.0
22674;DHT22;11504;43.334;21.918;2023-03-31T15:51:48;21.4;100.0
22674;DHT22;11504;43.334;21.918;2023-03-31T15:56:36;21.3;100.0
22674;DHT22;11504;43.334;21.918;2023-03-31T16:01:18;21.3;100.0
22674;DHT22;11504;43.334;21.918;2023-03-31T16:06:04;21.2;100.0
22674;DHT22;11504;43.334;21.918;2023-03-31T16:11:08;21.2;100.0
22674;DHT22;11504;43.334;21.918;2023-03-31T16:15:57;21.0;100.0
22674;DHT22;11504;43.334;21.918;2023-03-31T16:20:42;21.0;100.0
22674;DHT22;11504;43.334;21.918;2023-03-31T16:25:39;20.8;100.0
22674;DHT22;11504;43.334;21.918;2023-03-31T16:30:34;20.8;100.0
22674;DHT22;11504;43.334;21.918;2023-03-31T16:35:15;20.6;100.0
22674;DHT22;11504;43.334;21.918;2023-03-31T16:39:53;20.6;100.0
22674;DHT22;11504;43.334;21.918;2023-03-31T16:44:30;20.4;100.0
22674;DHT22;11504;43.334;21.918;2023-03-31T16:49:07;20.4;100.0
22674;DHT22;11504;43.334;21.918;2023-03-31T16:53:46;20.4;100.0
22674;DHT22;11504;43.334;21.918;2023-03-31T16:58:26;20.2;100.0
22674;DHT22;11504;43.334;21.918;2023-03-31T17:03:03;20.2;100.0
22674;DHT22;11504;43.334;21.918;2023-03-31T17:07:40;20.0;100.0
22674;DHT22;11504;43.334;21.918;2023-03-31T17:12:17;20.0;100.0
22674;DHT22;11504;43.334;21.918;2023-03-31T17:16:53;19.9;100.0
22674;DHT22;11504;43.334;21.918;2023-03-31T17:21:29;19.9;100.0
22674;DHT22;11504;43.334;21.918;2023-03-31T17:26:09;19.6;100.0
22674;DHT22;11504;43.334;21.918;2023-03-31T17:30:48;19.6;100.0
22674;DHT22;11504;43.334;21.918;2023-03-31T17:35:25;19.4;100.0
22674;DHT22;11504;43.334;21.918;2023-03-31T17:40:01;19.4;100.0
22674;DHT22;11504;43.334;21.918;2023-03-31T17:44:39;19.2;100.0
22674;DHT22;11504;43.334;21.918;2023-03-31T17:49:15;19.2;100.0
22674;DHT22;11504;43.334;21.918;2023-03-31T17:53:52;19.2;100.0
22674;DHT22;11504;43.334;21.918;2023-03-31T17:58:30;19.0;100.0
22674;DHT22;11504;43.334;21.918;2023-03-31T18:03:07;19.0;100.0
22674;DHT22;11504;43.334;21.918;2023-03-31T18:07:43;18.8;100.0
22674;DHT22;11504;43.334;21.918;2023-03-31T18:12:20;18.8;100.0
22674;DHT22;11504;43.334;21.918;2023-03-31T18:16:56;18.7;100.0
22674;DHT22;11504;43.334;21.918;2023-03-31T18:21:32;18.7;100.0
22674;DHT22;11504;43.334;21.918;2023-03-31T18:26:11;18.5;100.0
22674;DHT22;11504;43.334;21.918;2023-03-31T18:30:48;18.5;100.0
22674;DHT22;11504;43.334;21.918;2023-03-31T18:35:24;18.4;100.0
22674;DHT22;11504;43.334;21.918;2023-03-31T18:40:00;18.4;100.0
22674;DHT22;11504;43.334;21.918;2023-03-31T18:44:36;18.4;100.0
22674;DHT22;11504;43.334;21.918;2023-03-31T18:49:13;18.4;100.0
22674;DHT22;11504;43.334;21.918;2023-03-31T18:53:50;18.4;100.0
22674;DHT22;11504;43.334;21.918;2023-03-31T18:58:29;18.3;100.0
22674;DHT22;11504;43.334;21.918;2023-03-31T19:03:07;18.3;100.0
22674;DHT22;11504;43.334;21.918;2023-03-31T19:07:44;18.2;100.0
22674;DHT22;11504;43.334;21.918;2023-03-31T19:12:21;18.2;100.0
22674;DHT22;11504;43.334;21.918;2023-03-31T19:16:57;18.2;100.0
22674;DHT22;11504;43.334;21.918;2023-03-31T19:21:34;18.2;100.0
22674;DHT22;11504;43.334;21.918;2023-03-31T19:26:16;18.2;100.0
22674;DHT22;11504;43.334;21.918;2023-03-31T19:30:56;18.2;100.0
22674;DHT22;11504;43.334;21.918;2023-03-31T19:35:40;18.2;100.0
22674;DHT22;11504;43.334;21.918;2023-03-31T19:40:18;18.2;100.0
22674;DHT22;11504;43.334;21.918;2023-03-31T19:44:55;18.2;100.0
22674;DHT22;11504;43.334;21.918;2023-03-31T19:49:31;18.2;100.0
22674;DHT22;11504;43.334;21.918;2023-03-31T19:54:10;18.2;100.0
22674;DHT22;11504;43.334;21.918;2023-03-31T19:58:46;18.2;100.0
22674;DHT22;11504;43.334;21.918;2023-03-31T20:03:25;18.2;100.0
22674;DHT22;11504;43.334;21.918;2023-03-31T20:08:01;18.2;100.0
22674;DHT22;11504;43.334;21.918;2023-03-31T20:12:38;18.2;100.0
22674;DHT22;11504;43.334;21.918;2023-03-31T20:17:15;18.2;100.0
22674;DHT22;11504;43.334;21.918;2023-03-31T20:21:52;18.2;100.0
22674;DHT22;11504;43.334;21.918;2023-03-31T20:26:33;18.1;100.0
22674;DHT22;11504;43.334;21.918;2023-03-31T20:31:16;18.1;100.0
22674;DHT22;11504;43.334;21.918;2023-03-31T20:36:02;18.0;100.0
22674;DHT22;11504;43.334;21.918;2023-03-31T20:40:44;18.0;100.0
22674;DHT22;11504;43.334;21.918;2023-03-31T20:45:21;17.9;100.0
22674;DHT22;11504;43.334;21.918;2023-03-31T20:49:58;17.9;100.0
22674;DHT22;11504;43.334;21.918;2023-03-31T20:54:35;17.8;100.0
22674;DHT22;11504;43.334;21.918;2023-03-31T20:59:14;17.8;100.0
22674;DHT22;11504;43.334;21.918;2023-03-31T21:03:52;17.8;100.0
22674;DHT22;11504;43.334;21.918;2023-03-31T21:08:28;17.6;100.0
22674;DHT22;11504;43.334;21.918;2023-03-31T21:13:04;17.6;100.0
22674;DHT22;11504;43.334;21.918;2023-03-31T21:17:41;17.5;100.0
22674;DHT22;11504;43.334;21.918;2023-03-31T21:22:17;17.5;100.0
22674;DHT22;11504;43.334;21.918;2023-03-31T21:26:53;17.4;100.0
22674;DHT22;11504;43.334;21.918;2023-03-31T21:31:30;17.4;100.0
22674;DHT22;11504;43.334;21.918;2023-03-31T21:36:14;17.4;100.0
22674;DHT22;11504;43.334;21.918;2023-03-31T21:41:06;17.4;100.0
22674;DHT22;11504;43.334;21.918;2023-03-31T21:45:49;17.3;100.0
22674;DHT22;11504;43.334;21.918;2023-03-31T21:50:33;17.3;100.0
22674;DHT22;11504;43.334;21.918;2023-03-31T21:55:11;17.2;100.0
22674;DHT22;11504;43.334;21.918;2023-03-31T21:59:48;17.2;100.0
22674;DHT22;11504;43.334;21.918;2023-03-31T22:04:24;17.2;100.0
22674;DHT22;11504;43.334;21.918;2023-03-31T22:09:01;17.2;100.0
22674;DHT22;11504;43.334;21.918;2023-03-31T22:13:39;17.2;100.0
22674;DHT22;11504;43.334;21.918;2023-03-31T22:18:16;17.3;100.0
22674;DHT22;11504;43.334;21.918;2023-03-31T22:22:53;17.3;100.0
22674;DHT22;11504;43.334;21.918;2023-03-31T22:27:29;17.3;100.0
22674;DHT22;11504;43.334;21.918;2023-03-31T22:32:06;17.3;100.0
22674;DHT22;11504;43.334;21.918;2023-03-31T22:36:42;17.3;100.0
22674;DHT22;11504;43.334;21.918;2023-03-31T22:41:18;17.3;100.0
22674;DHT22;11504;43.334;21.918;2023-03-31T22:45:54;17.2;100.0
22674;DHT22;11504;43.334;21.918;2023-03-31T22:50:30;17.2;100.0
22674;DHT22;11504;43.334;21.918;2023-03-31T22:55:07;17.2;100.0
22674;DHT22;11504;43.334;21.918;2023-03-31T22:59:44;17.2;100.0
22674;DHT22;11504;43.334;21.918;2023-03-31T23:04:21;17.2;100.0
22674;DHT22;11504;43.334;21.918;2023-03-31T23:08:58;17.0;100.0
22674;DHT22;11504;43.334;21.918;2023-03-31T23:13:35;17.0;100.0
22674;DHT22;11504;43.334;21.918;2023-03-31T23:18:11;16.9;100.0
22674;DHT22;11504;43.334;21.918;2023-03-31T23:22:47;16.9;100.0
22674;DHT22;11504;43.334;21.918;2023-03-31T23:27:24;16.8;100.0
22674;DHT22;11504;43.334;21.918;2023-03-31T23:32:00;16.8;100.0
22674;DHT22;11504;43.334;21.918;2023-03-31T23:36:37;16.6;100.0
22674;DHT22;11504;43.334;21.918;2023-03-31T23:41:15;16.6;100.0
22674;DHT22;11504;43.334;21.918;2023-03-31T23:45:52;16.6;100.0
22674;DHT22;11504;43.334;21.918;2023-03-31T23:50:28;16.6;100.0
22674;DHT22;11504;43.334;21.918;2023-03-31T23:55:05;16.6;100.0
22674;DHT22;11504;43.334;21.918;2023-03-31T23:59:42;16.6;100.0
